Aérodrome :
LOGIN :

S'inscrire | Disclaimer

   EN    FR    IT 

 










Légende :    VFR   VFR Marginal   IFR   IFR Intensif   IFR Très Intensif
Visi : 
Plafond : 
>= 8 km
>= 3000ft
5 à 8 km
1000 à 3000 ft
1500m à 5 km
500 à 1000 ft
800 à 1500m
200 à 500 ft
< 800m
< 200 ft
Symboles :   Orages  Brouillard  Fortes neiges  Fortes précipitations  Vent > 20 kt
SIGMETs :   Divers  Orages  Givrage  Turbulence  Onde Orograph.  Cendres Volcan.







- Altitude de l'aérodrome : 309 ft
- Code IATA : FNI
- Voir les cartes d'approche


LFTW - Nîmes Garons

DERNIER METAR :
  • 211300Z AUTO 36004KT 290V100 CAVOK 17/M01 Q1027 NOSIG

METARs EXPIRÉS :
  • 211230Z AUTO VRB04KT CAVOK 17/01 Q1027 NOSIG
  • 211200Z AUTO VRB04KT CAVOK 17/01 Q1028 NOSIG
  • 211130Z AUTO VRB05KT CAVOK 15/00 Q1028 NOSIG
  • 211100Z AUTO 05006KT 340V120 CAVOK 15/01 Q1028 NOSIG
  • 211030Z AUTO 04008KT 360V060 CAVOK 14/M00 Q1028 NOSIG

TAF TAF LFTW
Valide du 21 à 09h jusqu'au 22 à 09h UTC


210800Z 2109/2209 VRB05KT CAVOK
BECMG 2109/2111 02010KT
Pas de NOTAMs connus pour ce terrain.



MET'MAP, la Météo Aéronautique d'un coup d'oeil ! - Copyright ORBIFLY Décembre 2007 - Disclaimer

ORBIFLY MET'MAP TEAM :

Programmation & Développement : Alexandra Zaïnal
Conception & Développement : Baudouin d'Aumeries
Co-Programmation & Développement : Marc-Olivier Méhu
Soutien technique & logistique : Manuel Goepfert

Contact : metmap@orbifly.com




SOURCES & CREDITS :

   NOAA